createdAt,value
2023-02-04T00:01:48.380Z,12.43
2023-02-04T00:05:53.101Z,18.13
2023-02-04T00:09:56.528Z,7.30
2023-02-04T00:14:02.750Z,13.02
2023-02-04T00:18:08.520Z,14.80
2023-02-04T00:22:13.238Z,16.08
2023-02-04T00:26:17.080Z,9.00
2023-02-04T00:34:24.471Z,8.13
2023-02-04T00:38:29.563Z,14.00
2023-02-04T00:42:32.921Z,12.68
2023-02-04T00:46:36.243Z,10.63
2023-02-04T00:50:40.192Z,18.50
2023-02-04T00:58:48.598Z,17.65
2023-02-04T01:02:51.623Z,13.25
2023-02-04T01:06:57.585Z,14.60
2023-02-04T01:11:02.293Z,15.38
2023-02-04T01:15:06.107Z,11.48
2023-02-04T01:19:09.303Z,13.60
2023-02-04T01:23:12.451Z,10.68
2023-02-04T01:27:17.214Z,8.43
2023-02-04T01:31:20.901Z,12.15
2023-02-04T01:35:24.500Z,13.95
2023-02-04T01:39:27.684Z,16.10
2023-02-04T01:43:32.851Z,11.10
2023-02-04T01:47:36.700Z,16.63
2023-02-04T01:51:40.425Z,15.00
2023-02-04T01:55:43.690Z,10.65
2023-02-04T01:59:49.407Z,9.48
2023-02-04T02:03:52.460Z,18.98
2023-02-04T02:07:58.201Z,5.15
2023-02-04T02:12:04.671Z,17.58
2023-02-04T02:16:09.533Z,6.72
2023-02-04T02:20:16.043Z,13.98
2023-02-04T02:24:31.860Z,12.27
2023-02-04T02:28:35.110Z,14.02
2023-02-04T02:32:38.898Z,12.05
2023-02-04T02:40:47.462Z,11.18
2023-02-04T02:44:55.697Z,8.10
2023-02-04T02:48:58.987Z,14.73
2023-02-04T02:53:02.342Z,16.98
2023-02-04T02:57:17.015Z,10.30
2023-02-04T03:01:20.158Z,11.93
2023-02-04T03:05:23.861Z,17.38
2023-02-04T03:09:28.893Z,15.07
2023-02-04T03:13:38.176Z,12.98
2023-02-04T03:17:42.082Z,16.95
2023-02-04T03:25:48.487Z,13.20
2023-02-04T03:29:53.455Z,15.38
2023-02-04T03:33:58.608Z,10.05
2023-02-04T03:38:01.719Z,11.30
2023-02-04T03:42:04.729Z,8.20
2023-02-04T03:46:09.564Z,12.45
2023-02-04T03:50:14.241Z,14.38
2023-02-04T03:54:19.726Z,13.93
2023-02-04T03:58:23.154Z,13.90
2023-02-04T04:02:28.231Z,12.60
2023-02-04T04:06:32.288Z,16.80
2023-02-04T04:10:35.252Z,6.65
2023-02-04T04:14:38.429Z,3.65
2023-02-04T04:18:42.929Z,3.60
2023-02-04T04:22:46.149Z,6.82
2023-02-04T04:26:49.306Z,6.60
2023-02-04T04:30:52.427Z,6.22
2023-02-04T04:34:56.811Z,10.88
2023-02-04T04:38:59.963Z,8.93
2023-02-04T04:43:03.046Z,8.57
2023-02-04T04:47:07.846Z,7.63
2023-02-04T04:51:12.442Z,10.35
2023-02-04T04:55:15.882Z,7.80
2023-02-04T04:59:21.212Z,7.72
2023-02-04T05:03:24.191Z,7.78
2023-02-04T05:07:29.026Z,8.57
2023-02-04T05:11:36.670Z,8.10
2023-02-04T05:15:39.884Z,5.65
2023-02-04T05:19:42.844Z,5.90
2023-02-04T05:23:47.281Z,10.43
2023-02-04T05:27:50.667Z,12.40
2023-02-04T05:31:53.892Z,15.80
2023-02-04T05:35:58.024Z,8.60
2023-02-04T05:40:02.944Z,8.07
2023-02-04T05:44:06.456Z,9.90
2023-02-04T05:48:09.424Z,11.55
2023-02-04T05:52:12.507Z,7.57
2023-02-04T05:56:17.261Z,7.80
2023-02-04T06:00:20.909Z,6.07
2023-02-04T06:04:24.202Z,13.20
2023-02-04T06:08:29.761Z,11.00
2023-02-04T06:12:34.366Z,5.57
2023-02-04T06:16:37.738Z,11.77
2023-02-04T06:20:40.922Z,9.90
2023-02-04T06:24:44.794Z,11.38
2023-02-04T06:28:50.603Z,5.75
2023-02-04T06:32:53.558Z,10.90
2023-02-04T06:36:56.350Z,9.60
2023-02-04T06:40:59.840Z,16.13
2023-02-04T06:45:04.796Z,9.38
2023-02-04T06:49:07.778Z,10.13
2023-02-04T06:53:11.255Z,11.98
2023-02-04T06:57:14.388Z,8.40
2023-02-04T07:01:19.173Z,5.43
2023-02-04T07:05:22.234Z,10.52
2023-02-04T07:09:25.589Z,8.40
2023-02-04T07:13:28.502Z,9.75
2023-02-04T07:17:33.021Z,11.63
2023-02-04T07:21:37.898Z,7.05
2023-02-04T07:25:41.046Z,6.18
2023-02-04T07:29:43.991Z,7.88
2023-02-04T07:33:50.294Z,5.32
2023-02-04T07:37:53.017Z,6.35
2023-02-04T07:41:56.217Z,5.63
2023-02-04T07:46:02.111Z,6.97
2023-02-04T07:50:07.587Z,4.85
2023-02-04T07:54:10.842Z,6.43
2023-02-04T07:58:13.733Z,6.90
2023-02-04T08:02:16.644Z,6.32
2023-02-04T08:06:21.123Z,6.75
2023-02-04T08:10:24.030Z,5.15
2023-02-04T08:14:29.519Z,6.45
2023-02-04T08:18:32.861Z,6.00
2023-02-04T08:22:37.567Z,4.85
2023-02-04T08:26:41.316Z,5.00
2023-02-04T08:30:47.025Z,5.15
2023-02-04T08:34:50.261Z,7.00
2023-02-04T08:38:54.771Z,5.80
2023-02-04T08:42:58.994Z,5.25
2023-02-04T08:47:01.942Z,3.03
2023-02-04T08:51:05.268Z,5.72
2023-02-04T08:55:10.711Z,3.75
2023-02-04T08:59:14.238Z,4.38
2023-02-04T09:07:20.106Z,2.13
2023-02-04T09:11:24.698Z,4.20
2023-02-04T09:15:28.855Z,3.60
2023-02-04T09:19:32.135Z,4.90
2023-02-04T09:23:36.037Z,3.50
2023-02-04T09:27:41.646Z,3.22
2023-02-04T09:31:45.172Z,3.65
2023-02-04T09:35:48.363Z,2.55
2023-02-04T09:39:51.660Z,3.50
2023-02-04T09:43:56.170Z,4.53
2023-02-04T09:48:01.216Z,4.97
2023-02-04T09:52:04.401Z,5.80
2023-02-04T09:56:11.169Z,5.72
2023-02-04T10:00:21.521Z,6.43
2023-02-04T10:04:25.246Z,7.30
2023-02-04T10:08:34.836Z,5.13
2023-02-04T10:12:38.174Z,4.75
2023-02-04T10:16:45.380Z,4.53
2023-02-04T10:20:48.458Z,6.85
2023-02-04T10:24:54.284Z,3.80
2023-02-04T10:29:02.650Z,4.60
2023-02-04T10:33:17.062Z,5.75
2023-02-04T10:37:22.275Z,4.93
2023-02-04T10:41:25.737Z,3.90
2023-02-04T10:45:30.545Z,7.15
2023-02-04T10:49:35.050Z,5.47
2023-02-04T10:53:55.160Z,7.35
2023-02-04T10:58:03.764Z,5.70
2023-02-04T11:02:35.784Z,6.38
2023-02-04T11:06:40.269Z,6.90
2023-02-04T11:10:45.530Z,9.10
2023-02-04T11:14:56.574Z,4.85
2023-02-04T11:19:04.529Z,6.85
2023-02-04T11:23:37.240Z,5.50
2023-02-04T11:27:41.835Z,8.18
2023-02-04T11:31:57.754Z,5.65
2023-02-04T11:36:04.862Z,8.27
2023-02-04T11:40:23.955Z,8.65
2023-02-04T11:44:27.753Z,5.45
2023-02-04T11:52:39.089Z,7.53
2023-02-04T11:56:44.496Z,5.55
2023-02-04T12:00:52.507Z,7.32
2023-02-04T12:05:00.391Z,8.38
2023-02-04T12:09:08.214Z,8.43
2023-02-04T12:13:24.097Z,7.45
2023-02-04T12:17:28.174Z,8.00
2023-02-04T12:21:34.284Z,5.18
2023-02-04T12:25:37.023Z,7.38
2023-02-04T12:29:41.466Z,5.53
2023-02-04T12:33:44.532Z,6.22
2023-02-04T12:37:47.639Z,8.82
2023-02-04T12:41:50.691Z,4.15
2023-02-04T12:45:57.709Z,7.43
2023-02-04T12:50:03.293Z,4.50
2023-02-04T12:54:06.686Z,4.40
2023-02-04T12:58:09.779Z,9.82
2023-02-04T13:02:14.515Z,3.05
2023-02-04T13:06:19.784Z,4.53
2023-02-04T13:10:24.223Z,7.32
2023-02-04T13:14:27.717Z,6.50
2023-02-04T13:18:35.137Z,7.90
2023-02-04T13:22:38.508Z,6.55
2023-02-04T13:26:41.687Z,6.07
2023-02-04T13:30:44.833Z,5.93
2023-02-04T13:34:49.368Z,9.02
2023-02-04T13:38:52.327Z,6.28
2023-02-04T13:42:58.108Z,6.45
2023-02-04T13:47:01.135Z,9.18
2023-02-04T13:51:06.768Z,8.75
2023-02-04T13:55:10.470Z,6.75
2023-02-04T13:59:13.677Z,7.72
2023-02-04T14:03:16.861Z,8.43
2023-02-04T14:07:22.786Z,6.03
2023-02-04T14:11:25.845Z,5.28
2023-02-04T14:15:28.867Z,6.30
2023-02-04T14:19:35.123Z,5.63
2023-02-04T14:23:39.695Z,7.95
2023-02-04T14:27:42.944Z,7.38
2023-02-04T14:31:45.889Z,9.55
2023-02-04T14:35:48.821Z,7.65
2023-02-04T14:39:53.392Z,8.30
2023-02-04T14:43:56.277Z,8.60
2023-02-04T14:48:00.688Z,6.95
2023-02-04T14:52:04.739Z,4.03
2023-02-04T14:56:09.654Z,5.93
2023-02-04T15:00:16.738Z,7.15
2023-02-04T15:04:19.820Z,3.45
2023-02-04T15:08:27.006Z,7.78
2023-02-04T15:12:31.587Z,6.03
2023-02-04T15:16:34.696Z,8.60
2023-02-04T15:20:37.856Z,8.90
2023-02-04T15:24:41.507Z,11.57
2023-02-04T15:28:49.356Z,13.00
2023-02-04T15:32:52.394Z,10.38
2023-02-04T15:36:55.653Z,12.27
2023-02-04T15:40:58.955Z,9.75
2023-02-04T15:45:07.960Z,11.23
2023-02-04T15:49:11.087Z,11.75
2023-02-04T15:53:14.223Z,8.15
2023-02-04T15:57:17.293Z,6.97
2023-02-04T16:01:21.630Z,13.40
2023-02-04T16:05:24.718Z,12.20
2023-02-04T16:09:28.471Z,16.50
2023-02-04T16:13:31.522Z,12.05
2023-02-04T16:17:36.289Z,14.68
2023-02-04T16:21:40.223Z,10.77
2023-02-04T16:25:45.255Z,12.55
2023-02-04T16:29:48.434Z,15.07
2023-02-04T16:33:53.065Z,14.35
2023-02-04T16:37:59.105Z,15.80
2023-02-04T16:42:02.539Z,16.85
2023-02-04T16:46:05.829Z,10.93
2023-02-04T16:50:14.597Z,16.80
2023-02-04T16:54:17.918Z,12.40
2023-02-04T16:58:21.151Z,11.70
2023-02-04T17:02:26.407Z,19.05
2023-02-04T17:06:35.908Z,20.45
2023-02-04T17:10:56.121Z,16.10
2023-02-04T17:14:59.135Z,26.45
2023-02-04T17:19:02.573Z,24.15
2023-02-04T17:23:07.070Z,18.85
2023-02-04T17:27:10.188Z,13.27
2023-02-04T17:31:13.382Z,21.95
2023-02-04T17:35:17.564Z,21.67
2023-02-04T17:39:22.200Z,22.10
2023-02-04T17:43:26.800Z,19.23
2023-02-04T17:47:29.869Z,17.88
2023-02-04T17:51:33.281Z,12.35
2023-02-04T17:55:39.712Z,18.98
2023-02-04T17:59:43.007Z,15.05
2023-02-04T18:03:47.445Z,14.88
2023-02-04T18:08:01.906Z,16.48
2023-02-04T18:12:15.264Z,16.05
2023-02-04T18:16:26.047Z,21.45
2023-02-04T18:24:36.841Z,18.27
2023-02-04T18:28:48.627Z,23.88
2023-02-04T18:32:51.813Z,16.90
2023-02-04T18:36:55.279Z,16.88
2023-02-04T18:41:04.375Z,16.92
2023-02-04T18:45:24.266Z,18.20
2023-02-04T19:02:30.820Z,26.48
2023-02-04T19:06:38.877Z,22.67
2023-02-04T19:10:43.712Z,23.45
2023-02-04T19:14:47.116Z,17.70
2023-02-04T19:18:54.107Z,26.92
2023-02-04T19:22:58.285Z,17.50
2023-02-04T19:27:08.953Z,16.65
2023-02-04T19:31:18.648Z,19.10
2023-02-04T19:35:25.985Z,16.63
2023-02-04T19:39:35.686Z,16.48
2023-02-04T19:43:39.691Z,18.58
2023-02-04T19:47:45.465Z,22.08
2023-02-04T19:51:53.651Z,19.63
2023-02-04T19:55:56.542Z,21.70
2023-02-04T20:00:00.859Z,16.60
2023-02-04T20:04:14.734Z,17.48
2023-02-04T20:08:47.487Z,14.77
2023-02-04T20:12:53.900Z,15.02
2023-02-04T20:16:59.290Z,27.23
2023-02-04T20:21:04.436Z,24.92
2023-02-04T20:25:45.257Z,23.92
2023-02-04T20:29:49.050Z,14.02
2023-02-04T20:33:53.764Z,20.92
2023-02-04T20:37:59.838Z,25.98
2023-02-04T20:42:34.004Z,14.75
2023-02-04T20:46:37.556Z,12.25
2023-02-04T20:50:42.692Z,19.40
2023-02-04T20:54:45.639Z,20.75
2023-02-04T20:59:26.960Z,25.35
2023-02-04T21:03:34.457Z,19.85
2023-02-04T21:07:37.628Z,6.53
2023-02-04T21:11:41.071Z,21.23
2023-02-04T21:15:45.403Z,16.80
2023-02-04T21:19:48.800Z,18.83
2023-02-04T21:23:53.832Z,16.58
2023-02-04T21:27:57.141Z,17.52
2023-02-04T21:32:01.661Z,8.23
2023-02-04T21:36:07.144Z,15.70
2023-02-04T21:40:10.880Z,21.00
2023-02-04T21:44:16.560Z,21.73
2023-02-04T21:48:23.421Z,23.33
2023-02-04T21:52:27.443Z,5.47
2023-02-04T21:56:31.982Z,12.23
2023-02-04T22:00:35.458Z,22.42
2023-02-04T22:04:39.718Z,20.98
2023-02-04T22:08:43.001Z,22.85
2023-02-04T22:12:46.217Z,20.70
2023-02-04T22:16:49.360Z,13.45
2023-02-04T22:20:54.130Z,24.17
2023-02-04T22:24:57.539Z,19.58
2023-02-04T22:29:01.015Z,23.88
2023-02-04T22:33:04.309Z,19.92
2023-02-04T22:37:08.925Z,19.75
2023-02-04T22:41:11.782Z,14.07
2023-02-04T22:45:14.975Z,18.48
2023-02-04T22:49:18.327Z,17.90
2023-02-04T22:53:22.936Z,15.35
2023-02-04T22:57:26.049Z,11.07
2023-02-04T23:01:29.536Z,20.27
2023-02-04T23:05:33.118Z,21.25
2023-02-04T23:09:39.138Z,21.08
2023-02-04T23:13:42.468Z,22.48
2023-02-04T23:17:45.628Z,11.60
2023-02-04T23:21:48.908Z,14.98
2023-02-04T23:25:53.679Z,13.43
2023-02-04T23:29:57.003Z,21.23
2023-02-04T23:34:00.069Z,10.70
2023-02-04T23:38:03.759Z,16.42
2023-02-04T23:42:08.318Z,12.43
2023-02-04T23:46:11.693Z,15.27
2023-02-04T23:50:15.081Z,11.70
2023-02-04T23:54:20.042Z,13.65
2023-02-04T23:58:24.716Z,16.23
